Time;durP1;ratioP1;P1;durP2;ratioP2;P2;SDS_P1;SDS_P2;PMS_P1;PMS_P2;Temp;Humidity;BMP_temperature;BMP_pressure;BME280_temperature;BME280_humidity;BME280_pressure;Samples;Min_cycle;Max_cycle;Signal;HPM_P1;HPM_P2
2023/04/21 00:01:08;;;;;;;25.88;20.52;;;;;;;11.48;66.38;100135.53;5049823;28;20049;-59
2023/04/21 00:03:37;;;;;;;22.35;18.88;;;;;;;11.45;66.21;100133.41;5053498;28;20060;-59
2023/04/21 00:06:06;;;;;;;23.80;20.08;;;;;;;11.49;65.99;100131.59;5053342;28;20053;-59
2023/04/21 00:08:36;;;;;;;24.95;19.48;;;;;;;11.48;66.21;100121.59;5053023;28;20497;-59
2023/04/21 00:11:05;;;;;;;23.50;19.17;;;;;;;11.49;66.84;100126.84;5050484;28;20052;-59
2023/04/21 00:13:33;;;;;;;23.40;18.38;;;;;;;11.49;66.90;100118.47;5044530;28;20060;-59
2023/04/21 00:16:01;;;;;;;25.00;20.08;;;;;;;11.47;66.98;100120.78;5049913;28;20053;-59
2023/04/21 00:18:29;;;;;;;24.17;20.40;;;;;;;11.46;66.78;100121.09;5052671;28;20136;-59
2023/04/21 00:20:56;;;;;;;27.90;22.17;;;;;;;11.47;67.38;100109.63;5053154;28;20389;-59
2023/04/21 00:23:23;;;;;;;25.77;20.58;;;;;;;11.52;66.90;100112.22;5051645;28;20063;-59
2023/04/21 00:25:51;;;;;;;25.20;19.48;;;;;;;11.52;66.96;100105.81;5053229;28;20075;-59
2023/04/21 00:28:22;;;;;;;26.73;21.50;;;;;;;11.52;66.93;100112.22;5051930;28;20057;-59
2023/04/21 00:30:50;;;;;;;26.13;20.10;;;;;;;11.49;67.21;100098.13;5047669;28;20529;-59
2023/04/21 00:33:17;;;;;;;27.80;21.58;;;;;;;11.49;67.00;100103.72;5052909;28;20049;-59
2023/04/21 00:35:44;;;;;;;24.33;20.05;;;;;;;11.46;67.58;100094.00;5053110;28;20053;-59
2023/04/21 00:38:11;;;;;;;25.70;21.02;;;;;;;11.46;67.28;100096.00;5032691;28;20422;-59
2023/04/21 00:40:39;;;;;;;27.25;21.27;;;;;;;11.48;67.34;100104.84;5033032;28;20049;-59
2023/04/21 00:43:06;;;;;;;25.30;21.05;;;;;;;11.50;67.44;100096.97;5032976;28;20060;-59
2023/04/21 00:45:35;;;;;;;22.35;18.77;;;;;;;11.50;67.00;100102.56;5033523;28;20049;-59
2023/04/21 00:48:02;;;;;;;25.10;19.90;;;;;;;11.46;66.63;100099.59;5052994;28;20053;-59
2023/04/21 00:50:30;;;;;;;25.20;21.55;;;;;;;11.46;66.95;100101.56;5052964;28;20052;-59
2023/04/21 00:52:57;;;;;;;26.05;20.35;;;;;;;11.44;67.00;100101.88;5052690;28;20056;-59
2023/04/21 00:55:25;;;;;;;23.38;19.17;;;;;;;11.45;66.85;100092.38;5052603;28;20055;-59
2023/04/21 00:57:53;;;;;;;24.65;20.25;;;;;;;11.44;67.02;100090.72;5052686;28;20501;-59
2023/04/21 01:00:20;;;;;;;24.92;20.63;;;;;;;11.45;67.05;100097.97;5052044;28;20048;-59
2023/04/21 01:02:49;;;;;;;26.83;21.27;;;;;;;11.38;67.51;100101.25;5048859;28;20071;-59
2023/04/21 01:05:17;;;;;;;28.40;22.65;;;;;;;11.36;67.57;100100.75;5052487;28;20053;-59
2023/04/21 01:07:44;;;;;;;24.77;20.95;;;;;;;11.40;67.29;100100.91;5052193;28;20056;-59
2023/04/21 01:10:12;;;;;;;23.83;19.27;;;;;;;11.38;67.48;100092.88;5052066;28;20049;-59
2023/04/21 01:12:43;;;;;;;26.42;20.98;;;;;;;11.36;68.30;100102.75;5051917;28;20061;-59
2023/04/21 01:15:12;;;;;;;22.65;19.17;;;;;;;11.31;68.38;100088.94;5052507;28;20406;-59
2023/04/21 01:17:39;;;;;;;24.63;20.40;;;;;;;11.34;68.14;100085.53;5036582;28;20049;-59
2023/04/21 01:20:12;;;;;;;23.98;19.30;;;;;;;11.32;68.50;100088.63;5032568;28;20053;-59
2023/04/21 01:22:43;;;;;;;25.67;20.75;;;;;;;11.32;68.31;100091.41;5032777;28;20054;-59
2023/04/21 01:25:10;;;;;;;29.50;22.98;;;;;;;11.30;67.87;100090.13;5032621;28;20061;-59
2023/04/21 01:27:38;;;;;;;27.33;21.58;;;;;;;11.32;68.17;100085.84;5032443;28;20057;-59
2023/04/21 01:30:09;;;;;;;27.55;22.08;;;;;;;11.30;68.38;100090.13;5032502;28;20068;-59
2023/04/21 01:32:37;;;;;;;26.55;22.17;;;;;;;11.30;68.83;100090.94;5047433;28;20045;-59
2023/04/21 01:35:07;;;;;;;27.65;21.98;;;;;;;11.23;68.88;100095.34;5051102;28;20060;-59
2023/04/21 01:37:34;;;;;;;30.27;23.27;;;;;;;11.21;68.97;100087.31;5051953;28;20053;-59
2023/04/21 01:40:06;;;;;;;29.75;22.35;;;;;;;11.24;68.56;100092.25;5054975;28;20486;-59
2023/04/21 01:42:35;;;;;;;29.65;22.98;;;;;;;11.25;69.12;100081.91;5055461;28;20513;-59
2023/04/21 01:45:02;;;;;;;25.30;20.80;;;;;;;11.26;68.78;100078.78;5056379;28;20348;-59
2023/04/21 01:47:30;;;;;;;27.17;21.40;;;;;;;11.26;69.47;100067.63;5052768;28;20064;-59
2023/04/21 01:49:57;;;;;;;27.90;21.67;;;;;;;11.25;68.98;100052.03;5055772;28;20414;-59
2023/04/21 01:52:27;;;;;;;29.27;23.00;;;;;;;11.21;68.65;100067.78;5056073;28;20056;-59
2023/04/21 01:54:58;;;;;;;28.85;22.13;;;;;;;11.20;68.92;100068.94;5055761;28;20413;-59
2023/04/21 01:57:30;;;;;;;31.52;23.50;;;;;;;11.21;69.52;100070.56;5056202;28;20409;-59
2023/04/21 01:59:57;;;;;;;26.50;21.35;;;;;;;11.23;68.88;100071.06;5056062;28;20053;-59
2023/04/21 02:02:25;;;;;;;28.15;21.48;;;;;;;11.15;69.51;100089.47;5052323;28;20057;-59
2023/04/21 02:04:52;;;;;;;30.23;24.05;;;;;;;11.13;69.52;100085.38;5053837;28;20060;-59
2023/04/21 02:07:19;;;;;;;26.48;21.20;;;;;;;11.13;69.01;100071.44;5055421;28;20053;-59
2023/04/21 02:09:46;;;;;;;29.27;23.27;;;;;;;11.16;69.04;100073.53;5050150;28;20057;-60
2023/04/21 02:12:16;;;;;;;26.33;20.95;;;;;;;11.15;69.73;100071.91;5055323;28;20497;-59
2023/04/21 02:14:47;;;;;;;28.05;21.17;;;;;;;11.16;69.13;100084.69;5055431;28;20052;-59
2023/04/21 02:17:14;;;;;;;25.65;20.52;;;;;;;11.09;69.75;100093.56;5051745;28;20421;-59
2023/04/21 02:19:41;;;;;;;29.00;22.33;;;;;;;11.08;68.88;100086.31;5055606;28;20052;-59
2023/04/21 02:22:11;;;;;;;26.80;20.70;;;;;;;11.14;68.59;100073.88;5055574;28;20072;-59
2023/04/21 02:24:38;;;;;;;26.60;21.65;;;;;;;11.10;68.72;100058.94;5055437;28;20049;-59
2023/04/21 02:27:06;;;;;;;30.02;22.38;;;;;;;11.11;69.63;100054.22;5055144;28;20065;-59
2023/04/21 02:29:33;;;;;;;27.60;22.08;;;;;;;11.11;69.18;100043.06;5055149;28;20414;-59
2023/04/21 02:32:02;;;;;;;29.02;21.08;;;;;;;11.06;69.51;100048.78;5046042;28;20434;-59
2023/04/21 02:34:33;;;;;;;26.60;20.63;;;;;;;11.07;69.94;100076.34;5042186;28;20056;-59
2023/04/21 02:37:01;;;;;;;28.75;22.35;;;;;;;11.01;69.58;100087.97;5053668;28;20057;-59
2023/04/21 02:39:28;;;;;;;28.88;22.05;;;;;;;10.88;69.49;100078.63;5055153;28;20053;-59
2023/04/21 02:41:56;;;;;;;29.75;22.88;;;;;;;10.79;69.76;100070.22;5054895;28;20128;-59
2023/04/21 02:44:23;;;;;;;30.73;22.60;;;;;;;10.74;71.29;100035.00;5054629;28;20057;-59
2023/04/21 02:46:50;;;;;;;29.33;23.17;;;;;;;10.75;71.12;100063.66;5045786;28;20052;-59
2023/04/21 02:49:19;;;;;;;28.60;22.75;;;;;;;10.75;70.95;100081.22;5035080;28;20053;-59
2023/04/21 02:51:46;;;;;;;35.78;25.77;;;;;;;10.68;70.99;100075.28;5034748;28;20057;-59
2023/04/21 02:54:14;;;;;;;30.58;24.08;;;;;;;10.67;70.87;100064.50;5035818;28;20060;-59
2023/04/21 02:56:41;;;;;;;29.65;23.42;;;;;;;10.70;71.10;100047.94;5055055;28;20048;-60
2023/04/21 02:59:10;;;;;;;28.90;22.40;;;;;;;10.72;71.95;100050.41;5054987;28;20064;-59
2023/04/21 03:01:37;;;;;;;33.63;24.73;;;;;;;10.76;71.30;100065.31;5047003;28;20065;-59
2023/04/21 03:04:05;;;;;;;34.05;26.45;;;;;;;10.77;71.33;100078.94;5034661;28;20050;-59
2023/04/21 03:06:35;;;;;;;38.63;26.40;;;;;;;10.69;71.84;100065.00;5034866;28;20065;-58
2023/04/21 03:09:03;;;;;;;31.00;22.75;;;;;;;10.66;71.54;100072.00;5034764;28;20398;-58
2023/04/21 03:11:30;;;;;;;32.95;24.02;;;;;;;10.72;71.56;100069.91;5034227;28;20057;-59
2023/04/21 03:13:57;;;;;;;30.05;22.80;;;;;;;10.74;71.23;100062.03;5034603;28;20497;-59
2023/04/21 03:16:25;;;;;;;30.08;24.10;;;;;;;10.77;70.93;100062.22;5036401;28;20053;-59
2023/04/21 03:18:52;;;;;;;31.05;23.80;;;;;;;10.74;71.53;100065.63;5034525;28;20057;-60
2023/04/21 03:21:19;;;;;;;28.25;21.90;;;;;;;10.69;71.79;100067.78;5034348;28;20057;-59
2023/04/21 03:23:48;;;;;;;32.50;24.08;;;;;;;10.76;71.95;100059.75;5052167;28;20405;-59
2023/04/21 03:26:15;;;;;;;30.25;23.67;;;;;;;10.79;71.80;100066.63;5053926;28;20056;-59
2023/04/21 03:28:42;;;;;;;31.65;24.55;;;;;;;10.82;71.78;100068.78;5053866;28;20064;-60
2023/04/21 03:31:10;;;;;;;37.20;25.27;;;;;;;10.79;71.75;100070.22;5044313;28;20518;-58
2023/04/21 03:33:37;;;;;;;29.65;23.00;;;;;;;10.79;71.10;100070.22;5034014;28;20053;-59
2023/04/21 03:36:05;;;;;;;30.48;23.38;;;;;;;10.84;71.97;100070.09;5033924;28;20057;-59
2023/04/21 03:38:32;;;;;;;29.20;23.63;;;;;;;10.76;71.22;100057.78;5034012;28;20053;-60
2023/04/21 03:41:01;;;;;;;29.27;22.63;;;;;;;10.78;71.51;100063.03;5034390;28;20386;-59
2023/04/21 03:43:28;;;;;;;30.23;23.80;;;;;;;10.80;71.23;100066.31;5034224;28;20056;-59
2023/04/21 03:45:56;;;;;;;31.48;24.67;;;;;;;10.77;71.45;100065.00;5037029;28;20061;-60
2023/04/21 03:48:23;;;;;;;30.58;22.90;;;;;;;10.81;71.39;100064.34;5033828;28;20065;-59
2023/04/21 03:50:53;;;;;;;28.73;22.40;;;;;;;10.83;71.18;100070.41;5033589;28;20057;-59
2023/04/21 03:53:20;;;;;;;29.38;22.35;;;;;;;10.78;71.37;100068.59;5033499;28;20068;-59
2023/04/21 03:55:50;;;;;;;31.02;23.77;;;;;;;10.82;71.53;100069.59;5047753;28;20060;-60
2023/04/21 03:58:18;;;;;;;26.83;22.08;;;;;;;10.86;72.05;100072.56;5053811;28;20447;-59
2023/04/21 04:00:45;;;;;;;28.90;22.40;;;;;;;10.89;72.02;100060.75;5044113;28;20057;-59
2023/04/21 04:03:13;;;;;;;33.35;24.42;;;;;;;10.91;70.98;100066.81;5033006;28;20065;-59
2023/04/21 04:05:40;;;;;;;32.40;22.27;;;;;;;10.92;71.88;100063.72;5033967;28;20395;-59
2023/04/21 04:08:07;;;;;;;28.50;22.23;;;;;;;10.95;71.62;100063.03;5033422;28;20060;-59
2023/04/21 04:10:34;;;;;;;30.30;23.88;;;;;;;11.02;71.87;100054.19;5033706;28;20089;-59
2023/04/21 04:13:02;;;;;;;30.00;23.35;;;;;;;11.04;71.86;100060.25;5033170;28;20057;-59
2023/04/21 04:15:31;;;;;;;30.98;23.85;;;;;;;11.07;71.33;100059.59;5039669;28;20521;-58
2023/04/21 04:17:58;;;;;;;35.93;26.87;;;;;;;10.91;70.78;100059.25;5050237;28;20425;-59
2023/04/21 04:20:26;;;;;;;31.15;24.15;;;;;;;10.97;71.08;100052.38;5053355;28;20049;-59
2023/04/21 04:22:53;;;;;;;29.17;24.20;;;;;;;11.06;71.04;100051.56;5053059;28;20052;-59
2023/04/21 04:25:20;;;;;;;28.38;22.55;;;;;;;11.00;70.37;100059.25;5051681;28;20049;-58
2023/04/21 04:27:49;;;;;;;28.58;22.67;;;;;;;10.95;71.04;100057.47;5053259;28;20049;-59
2023/04/21 04:30:16;;;;;;;29.15;23.02;;;;;;;10.92;70.90;100058.13;5043898;28;20053;-60
2023/04/21 04:32:45;;;;;;;28.63;23.27;;;;;;;10.88;70.58;100065.50;5033603;28;20057;-59
2023/04/21 04:35:14;;;;;;;29.20;22.92;;;;;;;10.84;70.46;100056.16;5033272;28;20076;-59
2023/04/21 04:37:41;;;;;;;28.33;22.33;;;;;;;10.74;71.00;100062.84;5032765;28;20064;-59
2023/04/21 04:40:10;;;;;;;32.08;24.20;;;;;;;10.79;71.24;100063.84;5033110;28;20380;-58
2023/04/21 04:42:39;;;;;;;31.05;23.35;;;;;;;10.86;70.76;100070.59;5033091;28;20061;-60
2023/04/21 04:45:08;;;;;;;32.85;24.30;;;;;;;10.91;71.17;100061.25;5033436;28;20049;-59
2023/04/21 04:47:35;;;;;;;32.40;24.58;;;;;;;10.89;71.47;100050.41;5033142;28;20081;-59
2023/04/21 04:50:04;;;;;;;32.30;25.63;;;;;;;10.91;70.78;100050.91;5033210;28;20380;-60
2023/04/21 04:52:32;;;;;;;29.33;23.85;;;;;;;10.94;71.74;100047.47;5032822;28;20506;-58
2023/04/21 04:54:59;;;;;;;31.45;25.30;;;;;;;11.03;71.74;100055.84;5040081;28;20056;-59
2023/04/21 04:57:26;;;;;;;30.10;24.08;;;;;;;11.08;71.07;100057.63;5052662;28;20060;-59
2023/04/21 04:59:55;;;;;;;30.92;24.50;;;;;;;11.06;71.15;100062.72;5049208;28;20045;-59
2023/04/21 05:02:23;;;;;;;29.98;23.85;;;;;;;11.06;71.18;100059.94;5052369;28;20116;-58
2023/04/21 05:04:50;;;;;;;33.00;25.25;;;;;;;11.06;71.60;100059.94;5052317;28;20497;-59
2023/04/21 05:07:19;;;;;;;33.55;26.58;;;;;;;11.08;71.93;100064.03;5052339;28;20055;-59
2023/04/21 05:09:46;;;;;;;30.95;24.10;;;;;;;11.13;71.69;100065.84;5051924;28;20052;-59
2023/04/21 05:12:14;;;;;;;35.95;24.98;;;;;;;11.16;71.50;100062.38;5051752;28;20049;-59
2023/04/21 05:14:41;;;;;;;30.33;24.75;;;;;;;11.17;71.59;100064.00;5045613;28;20087;-60
2023/04/21 05:17:08;;;;;;;31.65;24.15;;;;;;;11.21;70.83;100065.00;5046411;28;20049;-59
2023/04/21 05:19:36;;;;;;;32.72;24.08;;;;;;;11.26;70.80;100056.47;5052110;28;20358;-59
2023/04/21 05:22:05;;;;;;;31.48;24.70;;;;;;;11.28;71.16;100056.97;5052082;28;20056;-59
2023/04/21 05:24:34;;;;;;;34.27;26.83;;;;;;;11.33;70.88;100055.97;5051696;28;20049;-60
2023/04/21 05:27:01;;;;;;;31.65;24.77;;;;;;;11.35;71.05;100062.06;5048713;28;20670;-59
2023/04/21 05:29:29;;;;;;;31.88;24.10;;;;;;;11.38;71.26;100073.38;5032429;28;20045;-60
2023/04/21 05:31:57;;;;;;;34.40;27.85;;;;;;;11.40;70.63;100069.41;5035219;28;20060;-59
2023/04/21 05:34:24;;;;;;;33.60;25.92;;;;;;;11.43;70.67;100079.94;5035139;28;20045;-59
2023/04/21 05:36:52;;;;;;;34.83;26.08;;;;;;;11.51;71.09;100076.31;5038423;28;20386;-60
2023/04/21 05:39:19;;;;;;;35.45;25.48;;;;;;;11.52;70.55;100073.16;5051946;28;20501;-59
2023/04/21 05:41:48;;;;;;;32.85;25.63;;;;;;;11.62;70.31;100072.00;5051171;28;20053;-59
2023/04/21 05:44:17;;;;;;;30.70;25.13;;;;;;;11.71;70.25;100083.97;5034570;28;20050;-59
2023/04/21 05:46:44;;;;;;;30.67;24.75;;;;;;;11.71;70.17;100072.00;5048722;28;20053;-59
2023/04/21 05:49:12;;;;;;;31.10;25.55;;;;;;;11.76;70.22;100080.19;5050819;28;20060;-59
2023/04/21 05:51:39;;;;;;;32.75;26.52;;;;;;;11.82;70.24;100081.63;5051647;28;20060;-59
2023/04/21 05:54:06;;;;;;;30.75;25.40;;;;;;;11.87;70.03;100081.47;5051739;28;20068;-59
2023/04/21 05:56:33;;;;;;;30.15;24.55;;;;;;;11.95;69.98;100077.06;5034468;28;20482;-59
2023/04/21 05:59:02;;;;;;;31.42;25.10;;;;;;;12.05;69.87;100071.09;5051671;28;20450;-59
2023/04/21 06:01:30;;;;;;;34.20;27.35;;;;;;;12.14;69.78;100065.50;5037983;28;20048;-59
2023/04/21 06:03:57;;;;;;;30.95;24.58;;;;;;;12.27;69.35;100066.41;5041913;28;20387;-59
2023/04/21 06:06:26;;;;;;;32.28;26.40;;;;;;;12.37;68.96;100060.47;5043358;28;20060;-60
2023/04/21 06:08:53;;;;;;;31.37;25.30;;;;;;;12.41;69.01;100067.00;5047749;28;20049;-58
2023/04/21 06:11:21;;;;;;;32.10;25.63;;;;;;;12.41;68.71;100064.22;5051426;28;20052;-62
2023/04/21 06:13:48;;;;;;;31.17;25.27;;;;;;;12.42;68.86;100063.03;5051192;28;20506;-58
2023/04/21 06:16:17;;;;;;;32.05;26.08;;;;;;;12.49;68.18;100060.53;5047955;28;20052;-59
2023/04/21 06:18:44;;;;;;;29.77;25.08;;;;;;;12.50;67.87;100056.59;5050192;28;20417;-59
2023/04/21 06:21:11;;;;;;;34.97;28.10;;;;;;;12.53;68.05;100055.09;5041195;28;20057;-59
2023/04/21 06:23:38;;;;;;;30.45;25.27;;;;;;;12.62;67.75;100049.44;5037318;28;20057;-59
2023/04/21 06:26:07;;;;;;;30.80;25.13;;;;;;;12.65;67.87;100055.19;5037531;28;20058;-59
2023/04/21 06:28:38;;;;;;;34.10;25.45;;;;;;;12.74;67.21;100052.31;5048356;28;20140;-59
2023/04/21 06:31:05;;;;;;;32.25;26.30;;;;;;;12.81;66.97;100052.63;5042112;28;20478;-59
2023/04/21 06:33:34;;;;;;;34.10;27.45;;;;;;;13.04;66.46;100043.88;5033509;28;20049;-60
2023/04/21 06:36:01;;;;;;;31.23;25.38;;;;;;;13.20;66.39;100056.06;5032767;28;20053;-59
2023/04/21 06:38:28;;;;;;;28.70;23.70;;;;;;;13.36;67.14;100059.91;5050285;28;20513;-59
2023/04/21 06:40:56;;;;;;;31.85;24.67;;;;;;;13.55;65.41;100065.00;5048315;28;20049;-59
2023/04/21 06:43:23;;;;;;;27.00;22.80;;;;;;;13.69;65.52;100052.66;5054770;28;20057;-59
2023/04/21 06:45:50;;;;;;;30.83;24.77;;;;;;;13.83;65.22;100057.97;5051060;28;20048;-60
2023/04/21 06:48:17;;;;;;;29.20;23.73;;;;;;;14.02;64.08;100064.63;5034919;28;20486;-59
2023/04/21 06:50:46;;;;;;;29.00;24.33;;;;;;;14.06;64.95;100061.97;5052148;28;20060;-60
2023/04/21 06:53:13;;;;;;;25.42;22.20;;;;;;;14.21;63.24;100064.09;5053009;28;20075;-60
2023/04/21 06:55:42;;;;;;;28.10;23.25;;;;;;;14.26;63.55;100054.66;5046581;28;20505;-60
2023/04/21 06:58:10;;;;;;;29.45;24.52;;;;;;;14.37;63.40;100057.78;5044230;28;20057;-59
2023/04/21 07:00:37;;;;;;;25.55;22.27;;;;;;;14.37;63.82;100060.59;5052357;28;20409;-59
2023/04/21 07:03:05;;;;;;;31.40;25.70;;;;;;;14.51;63.29;100047.06;5052347;28;20056;-60
2023/04/21 07:05:32;;;;;;;28.88;23.58;;;;;;;14.56;62.42;100055.25;5041490;28;20049;-60
2023/04/21 07:08:01;;;;;;;26.67;22.80;;;;;;;14.57;62.70;100051.28;5036089;28;20060;-59
2023/04/21 07:10:29;;;;;;;31.15;24.27;;;;;;;14.61;63.08;100049.41;5044142;28;20171;-59
2023/04/21 07:12:56;;;;;;;29.63;25.25;;;;;;;14.60;62.71;100053.38;5042183;28;20060;-59
2023/04/21 07:15:23;;;;;;;26.27;23.45;;;;;;;14.65;61.69;100054.31;5037918;28;20054;-59
2023/04/21 07:17:50;;;;;;;31.30;26.13;;;;;;;14.54;62.52;100046.34;5049341;28;20072;-59
2023/04/21 07:20:18;;;;;;;28.55;24.17;;;;;;;14.65;63.44;100043.09;5049787;28;20049;-59
2023/04/21 07:22:45;;;;;;;28.05;24.10;;;;;;;14.80;62.31;100039.53;5034581;28;20049;-59
2023/04/21 07:25:14;;;;;;;30.55;25.35;;;;;;;14.84;63.14;100040.47;5034028;28;20061;-59
2023/04/21 07:27:41;;;;;;;27.67;23.70;;;;;;;14.93;63.00;100043.13;5034394;28;20068;-59
2023/04/21 07:30:09;;;;;;;27.45;23.67;;;;;;;14.83;61.52;100047.25;5034229;28;20406;-59
2023/04/21 07:32:37;;;;;;;27.40;24.10;;;;;;;14.88;61.85;100052.63;5047193;28;20053;-60
2023/04/21 07:35:05;;;;;;;27.45;23.27;;;;;;;14.86;61.91;100054.16;5053661;28;20072;-59
2023/04/21 07:37:32;;;;;;;26.58;23.15;;;;;;;14.89;63.06;100031.84;5048686;28;20049;-59
2023/04/21 07:39:59;;;;;;;27.23;23.23;;;;;;;15.02;61.74;100046.63;5041687;28;20060;-60
2023/04/21 07:42:28;;;;;;;24.50;21.50;;;;;;;15.11;61.62;100049.28;5037294;28;20152;-59
2023/04/21 07:44:56;;;;;;;27.30;22.83;;;;;;;15.19;61.39;100048.34;5036947;28;20046;-59
2023/04/21 07:47:23;;;;;;;25.77;22.48;;;;;;;15.31;61.95;100045.47;5052700;28;20052;-59
2023/04/21 07:49:50;;;;;;;27.42;24.38;;;;;;;15.48;60.54;100040.75;5071718;28;20056;-59
2023/04/21 07:52:18;;;;;;;27.00;23.98;;;;;;;15.59;60.07;100047.44;5061740;28;20052;-59
2023/04/21 07:54:45;;;;;;;26.15;22.67;;;;;;;15.53;60.15;100044.09;5053124;28;20056;-59
2023/04/21 07:57:13;;;;;;;25.48;22.88;;;;;;;15.62;59.89;100036.34;5053442;28;20413;-59
2023/04/21 07:59:41;;;;;;;25.65;22.13;;;;;;;15.73;60.32;100035.84;5053349;28;20053;-59
2023/04/21 08:02:09;;;;;;;26.17;22.77;;;;;;;15.73;59.92;100028.22;5037989;28;20060;-60
2023/04/21 08:04:36;;;;;;;28.25;23.17;;;;;;;15.70;60.12;100028.91;5033798;28;20069;-60
2023/04/21 08:07:03;;;;;;;26.83;23.25;;;;;;;15.79;59.99;100037.19;5043071;28;20076;-59
2023/04/21 08:09:31;;;;;;;27.25;22.38;;;;;;;15.66;59.12;100042.03;5040279;28;20064;-59
2023/04/21 08:11:58;;;;;;;23.33;20.70;;;;;;;15.49;60.60;100045.16;5043465;28;20064;-59
2023/04/21 08:14:25;;;;;;;26.65;21.77;;;;;;;15.29;60.77;100045.03;5041844;28;20049;-60
2023/04/21 08:16:54;;;;;;;25.67;22.27;;;;;;;15.19;60.19;100039.91;5042197;28;20060;-60
2023/04/21 08:19:21;;;;;;;23.88;20.77;;;;;;;15.01;60.67;100037.41;5041538;28;20405;-59
2023/04/21 08:21:49;;;;;;;24.48;21.15;;;;;;;15.06;62.18;100041.13;5039841;28;20072;-59
2023/04/21 08:24:16;;;;;;;25.20;19.58;;;;;;;14.99;61.88;100042.56;5042594;28;20048;-59
2023/04/21 08:26:43;;;;;;;25.27;21.08;;;;;;;14.84;61.06;100046.09;5033083;28;20068;-59
2023/04/21 08:29:12;;;;;;;24.55;21.55;;;;;;;14.65;61.31;100051.50;5050808;28;20076;-59
2023/04/21 08:31:39;;;;;;;24.40;20.48;;;;;;;14.47;62.10;100048.91;5044598;28;20491;-59
2023/04/21 08:34:08;;;;;;;25.92;22.27;;;;;;;14.36;63.59;100042.97;5044647;28;20060;-59
2023/04/21 08:36:35;;;;;;;23.57;20.67;;;;;;;14.43;63.72;100053.59;5052514;28;20052;-59
2023/04/21 08:39:02;;;;;;;25.88;21.60;;;;;;;14.36;64.20;100047.75;5033908;28;20484;-59
2023/04/21 08:41:30;;;;;;;26.05;22.50;;;;;;;14.44;62.94;100055.22;5032719;28;20058;-59
2023/04/21 08:43:57;;;;;;;25.08;22.05;;;;;;;14.41;63.03;100056.72;5038919;28;20045;-59
2023/04/21 08:46:26;;;;;;;24.60;20.92;;;;;;;14.38;63.58;100053.81;5048924;28;20072;-59
2023/04/21 08:48:53;;;;;;;24.58;20.92;;;;;;;14.34;64.09;100062.13;5036338;28;20426;-59
2023/04/21 08:51:24;;;;;;;27.25;22.48;;;;;;;14.35;63.31;100069.34;5041938;28;20092;-59
2023/04/21 08:53:51;;;;;;;25.75;21.23;;;;;;;14.42;64.25;100060.34;5044951;28;20049;-59
2023/04/21 08:56:18;;;;;;;26.58;22.60;;;;;;;14.48;64.46;100060.94;5038912;28;20048;-59
2023/04/21 08:58:45;;;;;;;27.10;22.90;;;;;;;14.61;63.95;100065.38;5050767;28;20057;-58
2023/04/21 09:01:13;;;;;;;23.90;21.30;;;;;;;14.75;63.53;100053.81;5041489;28;20517;-59
2023/04/21 09:03:40;;;;;;;24.60;21.90;;;;;;;14.86;63.96;100052.16;5039335;28;20429;-58
2023/04/21 09:06:09;;;;;;;25.13;22.40;;;;;;;14.97;62.51;100060.88;5045047;28;20056;-59
2023/04/21 09:08:42;;;;;;;27.20;23.77;;;;;;;15.05;62.55;100050.72;5039647;28;20048;-59
2023/04/21 09:11:14;;;;;;;24.00;21.40;;;;;;;15.23;62.23;100055.69;5039196;28;20052;-58
2023/04/21 09:13:43;;;;;;;24.63;20.83;;;;;;;15.41;61.38;100053.41;5037591;28;20047;-59
2023/04/21 09:16:16;;;;;;;26.15;20.95;;;;;;;15.65;62.07;100048.03;5045954;28;20053;-58
2023/04/21 09:18:44;;;;;;;24.55;20.52;;;;;;;15.73;61.17;100050.69;5039471;28;20049;-58
2023/04/21 09:21:14;;;;;;;24.70;22.05;;;;;;;15.86;60.40;100048.63;5039811;28;20502;-58
2023/04/21 09:23:49;;;;;;;24.02;21.20;;;;;;;15.83;59.93;100047.34;5038998;28;20052;-59
2023/04/21 09:26:17;;;;;;;24.15;21.48;;;;;;;15.89;59.98;100055.50;5043156;28;20065;-59
2023/04/21 09:28:45;;;;;;;26.60;22.13;;;;;;;15.94;60.06;100060.88;5047870;28;20052;-58
2023/04/21 09:31:15;;;;;;;23.83;20.30;;;;;;;15.94;58.82;100058.88;5048437;28;20351;-58
2023/04/21 09:33:47;;;;;;;26.42;20.38;;;;;;;15.90;60.31;100046.72;5038882;28;20132;-58
2023/04/21 09:36:21;;;;;;;25.75;21.75;;;;;;;15.98;59.50;100051.34;5051717;28;20053;-58
2023/04/21 09:38:57;;;;;;;25.80;22.52;;;;;;;16.01;60.50;100056.22;5039613;28;20049;-58
2023/04/21 09:41:25;;;;;;;32.03;23.42;;;;;;;16.01;59.72;100047.00;5030100;28;20053;-59
2023/04/21 09:43:52;;;;;;;26.25;22.10;;;;;;;16.02;60.52;100048.63;5046262;28;20056;-58
2023/04/21 09:46:20;;;;;;;28.70;21.90;;;;;;;16.14;59.44;100047.72;5039101;28;20041;-59
2023/04/21 09:48:48;;;;;;;25.88;22.77;;;;;;;16.23;59.40;100037.09;5038330;28;20505;-58
2023/04/21 09:51:17;;;;;;;23.20;20.70;;;;;;;16.30;59.28;100037.31;5038640;28;20050;-58
2023/04/21 09:53:45;;;;;;;26.00;21.90;;;;;;;16.44;58.62;100048.06;5038003;28;20064;-58
2023/04/21 09:56:16;;;;;;;22.98;20.58;;;;;;;16.57;59.03;100034.72;5037770;28;20050;-59
2023/04/21 09:58:47;;;;;;;26.50;22.33;;;;;;;16.94;58.37;100035.19;5044166;28;20049;-58
2023/04/21 10:01:15;;;;;;;23.20;20.75;;;;;;;17.20;57.51;100028.91;5037950;28;20509;-59
2023/04/21 10:03:45;;;;;;;25.20;22.13;;;;;;;17.20;57.54;100040.19;5046014;28;20052;-59
2023/04/21 10:06:13;;;;;;;22.70;20.02;;;;;;;17.79;56.91;100023.22;5045956;28;20061;-59
2023/04/21 10:08:41;;;;;;;20.73;18.52;;;;;;;18.82;54.67;100012.84;5045794;28;20068;-58
2023/04/21 10:11:10;;;;;;;21.83;18.40;;;;;;;20.50;50.53;100009.38;5049906;28;20057;-59
2023/04/21 10:13:40;;;;;;;22.33;18.20;;;;;;;20.79;49.68;100021.69;5046878;28;20064;-59
2023/04/21 10:16:09;;;;;;;22.48;18.95;;;;;;;21.41;48.71;100017.97;5040496;28;20084;-59
2023/04/21 10:18:38;;;;;;;22.40;17.55;;;;;;;23.01;45.96;100013.59;5039804;28;20053;-59
2023/04/21 10:21:07;;;;;;;19.30;17.33;;;;;;;22.73;45.95;100007.97;5037861;28;20053;-59
2023/04/21 10:23:39;;;;;;;22.20;19.10;;;;;;;22.90;43.10;100009.94;5055051;28;20057;-59
2023/04/21 10:26:11;;;;;;;19.83;17.70;;;;;;;23.32;42.67;100005.34;5055350;28;20148;-59
2023/04/21 10:28:58;;;;;;;18.73;16.88;;;;;;;23.85;41.20;99998.56;5054636;28;20060;-59
2023/04/21 10:31:33;;;;;;;19.00;17.10;;;;;;;23.63;40.78;100008.44;5047530;28;20067;-59
2023/04/21 10:34:29;;;;;;;21.73;17.67;;;;;;;22.94;42.96;100016.44;5054783;28;20076;-59
2023/04/21 10:37:21;;;;;;;19.48;17.58;;;;;;;22.44;42.07;100008.00;5055061;28;20410;-59
2023/04/21 10:39:54;;;;;;;18.23;16.42;;;;;;;21.86;43.17;100005.16;5054892;28;20049;-59
2023/04/21 10:42:27;;;;;;;21.92;19.45;;;;;;;21.56;44.81;100010.34;5054649;28;20407;-59
2023/04/21 10:45:06;;;;;;;19.92;16.77;;;;;;;21.07;45.24;99995.56;5053634;28;20052;-59
2023/04/21 10:47:37;;;;;;;17.95;16.05;;;;;;;20.58;44.52;99992.09;5033626;28;20395;-59
2023/04/21 10:50:16;;;;;;;17.45;15.63;;;;;;;20.17;45.31;99992.16;5035050;28;20053;-59
2023/04/21 10:52:51;;;;;;;18.20;16.27;;;;;;;19.68;47.21;99987.66;5034964;28;20057;-59
2023/04/21 10:55:19;;;;;;;20.55;18.48;;;;;;;19.57;48.27;99981.91;5038112;28;20049;-59
2023/04/21 10:57:46;;;;;;;21.88;19.67;;;;;;;19.48;48.73;99992.69;5054677;28;20509;-59
2023/04/21 11:00:21;;;;;;;24.05;20.88;;;;;;;19.40;49.48;99990.97;5052098;28;20060;-59
2023/04/21 11:03:01;;;;;;;22.58;19.15;;;;;;;19.13;49.99;99987.41;5035845;28;20458;-59
2023/04/21 11:05:35;;;;;;;21.05;18.17;;;;;;;19.12;49.31;99988.63;5054023;28;20065;-58
2023/04/21 11:08:11;;;;;;;18.27;16.38;;;;;;;18.94;49.50;99991.22;5054777;28;20053;-59
2023/04/21 11:10:55;;;;;;;21.17;17.77;;;;;;;18.94;49.13;99977.94;5048404;28;20045;-59
2023/04/21 11:13:24;;;;;;;19.42;17.50;;;;;;;18.84;49.80;99976.59;5048004;28;20068;-58
2023/04/21 11:16:00;;;;;;;20.80;18.00;;;;;;;18.90;50.08;99977.09;5050588;28;20072;-59